createdAt,value
2023-05-04T00:02:21.116Z,8.43
2023-05-04T00:04:48.219Z,7.43
2023-05-04T00:07:15.141Z,10.00
2023-05-04T00:09:41.975Z,9.00
2023-05-04T00:12:09.358Z,9.50
2023-05-04T00:14:37.598Z,9.18
2023-05-04T00:17:06.773Z,10.70
2023-05-04T00:19:34.785Z,7.85
2023-05-04T00:22:02.107Z,6.15
2023-05-04T00:24:29.463Z,8.45
2023-05-04T00:26:56.334Z,7.38
2023-05-04T00:29:23.322Z,8.52
2023-05-04T00:31:50.868Z,9.80
2023-05-04T00:34:18.507Z,10.93
2023-05-04T00:36:46.480Z,12.60
2023-05-04T00:39:13.916Z,7.47
2023-05-04T00:41:41.160Z,11.60
2023-05-04T00:44:08.011Z,7.80
2023-05-04T00:46:37.961Z,10.95
2023-05-04T00:49:07.752Z,13.05
2023-05-04T00:51:36.054Z,7.88
2023-05-04T00:54:03.220Z,11.07
2023-05-04T00:56:31.077Z,7.03
2023-05-04T00:58:58.594Z,12.38
2023-05-04T01:01:26.224Z,9.15
2023-05-04T01:03:55.322Z,7.63
2023-05-04T01:06:44.209Z,5.40
2023-05-04T01:09:18.122Z,10.45
2023-05-04T01:11:58.842Z,9.48
2023-05-04T01:14:27.233Z,7.05
2023-05-04T01:16:58.002Z,7.85
2023-05-04T01:19:27.635Z,7.88
2023-05-04T01:21:54.746Z,14.38
2023-05-04T01:24:22.252Z,12.98
2023-05-04T01:26:55.775Z,12.40
2023-05-04T01:29:28.564Z,13.98
2023-05-04T01:31:57.191Z,14.10
2023-05-04T01:34:24.077Z,14.63
2023-05-04T01:36:52.006Z,22.13
2023-05-04T01:39:18.840Z,10.02
2023-05-04T01:41:45.621Z,10.32
2023-05-04T01:44:12.646Z,15.85
2023-05-04T01:46:39.789Z,10.73
2023-05-04T01:49:08.052Z,8.07
2023-05-04T01:51:35.055Z,10.43
2023-05-04T01:54:02.067Z,12.45
2023-05-04T01:56:29.144Z,12.68
2023-05-04T01:58:56.132Z,9.73
2023-05-04T02:01:23.161Z,9.82
2023-05-04T02:03:50.117Z,10.73
2023-05-04T02:06:17.215Z,15.60
2023-05-04T02:08:44.104Z,11.77
2023-05-04T02:11:11.322Z,10.93
2023-05-04T02:13:38.646Z,15.65
2023-05-04T02:16:06.761Z,15.82
2023-05-04T02:18:33.717Z,17.00
2023-05-04T02:21:00.957Z,21.67
2023-05-04T02:23:27.743Z,15.85
2023-05-04T02:25:55.972Z,13.77
2023-05-04T02:28:23.858Z,14.05
2023-05-04T02:30:50.973Z,14.45
2023-05-04T02:33:17.824Z,14.23
2023-05-04T02:35:44.604Z,10.90
2023-05-04T02:38:11.384Z,13.48
2023-05-04T02:40:39.864Z,6.40
2023-05-04T02:43:06.726Z,7.38
2023-05-04T02:45:35.249Z,7.60
2023-05-04T02:48:02.588Z,9.35
2023-05-04T02:50:31.188Z,12.10
2023-05-04T02:52:58.902Z,10.60
2023-05-04T02:55:25.854Z,14.95
2023-05-04T02:57:52.777Z,13.75
2023-05-04T03:00:19.748Z,14.55
2023-05-04T03:02:47.100Z,11.63
2023-05-04T03:05:14.188Z,14.18
2023-05-04T03:07:40.981Z,17.00
2023-05-04T03:10:09.337Z,10.85
2023-05-04T03:12:36.339Z,12.45
2023-05-04T03:15:03.594Z,13.10
2023-05-04T03:17:31.366Z,11.05
2023-05-04T03:19:58.463Z,13.18
2023-05-04T03:22:26.854Z,13.40
2023-05-04T03:24:54.563Z,9.15
2023-05-04T03:27:21.537Z,13.60
2023-05-04T03:29:48.516Z,11.93
2023-05-04T03:32:16.076Z,11.52
2023-05-04T03:34:45.679Z,9.95
2023-05-04T03:37:13.430Z,14.35
2023-05-04T03:39:40.581Z,13.30
2023-05-04T03:42:08.366Z,9.00
2023-05-04T03:44:35.183Z,10.90
2023-05-04T03:47:02.152Z,8.07
2023-05-04T03:49:29.953Z,10.68
2023-05-04T03:51:57.118Z,9.55
2023-05-04T03:54:24.616Z,8.45
2023-05-04T03:56:51.683Z,10.93
2023-05-04T03:59:18.524Z,10.32
2023-05-04T04:01:46.251Z,11.60
2023-05-04T04:04:13.199Z,14.68
2023-05-04T04:06:41.933Z,11.27
2023-05-04T04:09:10.274Z,13.85
2023-05-04T04:11:37.175Z,9.52
2023-05-04T04:14:04.261Z,7.55
2023-05-04T04:16:31.446Z,9.43
2023-05-04T04:18:58.565Z,12.68
2023-05-04T04:21:25.370Z,12.80
2023-05-04T04:23:52.496Z,11.77
2023-05-04T04:26:20.413Z,11.48
2023-05-04T04:28:50.725Z,15.80
2023-05-04T04:31:18.945Z,10.98
2023-05-04T04:33:47.520Z,7.65
2023-05-04T04:36:16.822Z,9.15
2023-05-04T04:38:44.566Z,9.70
2023-05-04T04:41:11.830Z,7.22
2023-05-04T04:43:38.976Z,9.63
2023-05-04T04:46:05.816Z,13.25
2023-05-04T04:48:32.978Z,8.98
2023-05-04T04:51:00.060Z,6.60
2023-05-04T04:53:27.107Z,7.97
2023-05-04T04:55:54.704Z,5.95
2023-05-04T04:58:22.191Z,5.45
2023-05-04T05:00:49.092Z,5.28
2023-05-04T05:03:22.813Z,7.60
2023-05-04T05:05:50.052Z,8.90
2023-05-04T05:08:17.148Z,5.45
2023-05-04T05:10:44.271Z,5.30
2023-05-04T05:13:11.169Z,6.13
2023-05-04T05:15:38.157Z,5.38
2023-05-04T05:18:05.026Z,7.18
2023-05-04T05:20:31.944Z,8.15
2023-05-04T05:22:59.139Z,7.00
2023-05-04T05:25:26.174Z,6.88
2023-05-04T05:27:53.273Z,9.25
2023-05-04T05:30:20.328Z,11.85
2023-05-04T05:32:49.195Z,11.60
2023-05-04T05:35:16.753Z,6.18
2023-05-04T05:37:43.557Z,17.85
2023-05-04T05:40:10.954Z,18.15
2023-05-04T05:42:37.846Z,8.10
2023-05-04T05:45:05.313Z,6.88
2023-05-04T05:47:32.246Z,13.13
2023-05-04T05:49:59.238Z,10.63
2023-05-04T05:52:26.370Z,11.77
2023-05-04T05:54:53.567Z,10.35
2023-05-04T05:57:20.808Z,10.48
2023-05-04T05:59:47.952Z,8.07
2023-05-04T06:02:15.361Z,11.30
2023-05-04T06:04:43.265Z,12.00
2023-05-04T06:07:10.474Z,9.30
2023-05-04T06:09:37.385Z,9.57
2023-05-04T06:12:06.806Z,7.57
2023-05-04T06:14:33.809Z,5.32
2023-05-04T06:17:00.801Z,6.68
2023-05-04T06:19:29.576Z,6.43
2023-05-04T06:21:57.841Z,7.68
2023-05-04T06:24:26.975Z,9.10
2023-05-04T06:26:54.004Z,9.50
2023-05-04T06:29:20.789Z,9.10
2023-05-04T06:31:48.463Z,6.10
2023-05-04T06:34:19.240Z,6.47
2023-05-04T06:36:46.019Z,6.47
2023-05-04T06:39:13.016Z,7.25
2023-05-04T06:41:39.829Z,6.68
2023-05-04T06:44:07.004Z,5.32
2023-05-04T06:46:39.886Z,5.38
2023-05-04T06:49:06.852Z,5.72
2023-05-04T06:51:37.506Z,5.20
2023-05-04T06:54:04.304Z,6.15
2023-05-04T06:56:31.425Z,6.72
2023-05-04T06:58:58.350Z,6.20
2023-05-04T07:01:25.452Z,9.55
2023-05-04T07:03:52.595Z,4.68
2023-05-04T07:06:20.272Z,3.20
2023-05-04T07:08:47.063Z,7.75
2023-05-04T07:11:14.295Z,4.78
2023-05-04T07:13:41.206Z,10.18
2023-05-04T07:16:09.278Z,4.65
2023-05-04T07:18:36.441Z,12.18
2023-05-04T07:21:21.921Z,7.05
2023-05-04T07:23:52.208Z,8.90
2023-05-04T07:26:19.468Z,5.68
2023-05-04T07:28:46.776Z,4.53
2023-05-04T07:31:14.566Z,6.90
2023-05-04T07:33:42.104Z,2.40
2023-05-04T07:36:09.302Z,5.82
2023-05-04T07:38:36.684Z,2.30
2023-05-04T07:41:03.827Z,6.25
2023-05-04T07:43:30.737Z,3.35
2023-05-04T07:45:57.941Z,9.80
2023-05-04T07:48:26.448Z,10.93
2023-05-04T07:50:54.292Z,3.70
2023-05-04T07:53:21.715Z,2.92
2023-05-04T07:55:48.895Z,2.42
2023-05-04T07:58:16.748Z,2.95
2023-05-04T08:00:44.073Z,2.30
2023-05-04T08:03:11.676Z,1.67
2023-05-04T08:05:38.740Z,3.75
2023-05-04T08:08:05.784Z,15.10
2023-05-04T08:10:36.972Z,12.57
2023-05-04T08:13:05.605Z,3.15
2023-05-04T08:15:32.714Z,2.50
2023-05-04T08:17:59.820Z,1.70
2023-05-04T08:20:26.902Z,2.38
2023-05-04T08:22:53.869Z,6.07
2023-05-04T08:25:22.276Z,4.85
2023-05-04T08:27:49.581Z,3.00
2023-05-04T08:30:17.416Z,3.75
2023-05-04T08:32:44.435Z,3.83
2023-05-04T08:35:11.489Z,4.03
2023-05-04T08:37:38.297Z,2.97
2023-05-04T08:40:06.026Z,2.88
2023-05-04T08:42:33.415Z,6.18
2023-05-04T08:45:01.401Z,5.78
2023-05-04T08:47:29.804Z,2.22
2023-05-04T08:49:56.856Z,7.22
2023-05-04T08:52:25.605Z,5.72
2023-05-04T08:54:57.055Z,4.20
2023-05-04T08:57:25.233Z,4.85
2023-05-04T08:59:53.943Z,5.75
2023-05-04T09:02:23.829Z,3.80
2023-05-04T09:04:52.831Z,3.97
2023-05-04T09:07:21.395Z,3.10
2023-05-04T09:09:50.921Z,4.10
2023-05-04T09:12:19.423Z,4.72
2023-05-04T09:14:46.894Z,3.72
2023-05-04T09:17:17.799Z,5.20
2023-05-04T09:19:44.959Z,4.65
2023-05-04T09:22:17.547Z,11.32
2023-05-04T09:24:46.400Z,10.38
2023-05-04T09:27:18.760Z,7.95
2023-05-04T09:29:54.017Z,8.07
2023-05-04T09:32:21.058Z,4.70
2023-05-04T09:34:53.171Z,4.88
2023-05-04T09:37:21.521Z,2.55
2023-05-04T09:39:56.404Z,2.60
2023-05-04T09:42:24.768Z,3.13
2023-05-04T09:45:00.022Z,4.50
2023-05-04T09:47:33.793Z,9.05
2023-05-04T09:50:25.541Z,14.50
2023-05-04T09:52:53.700Z,20.67
2023-05-04T09:55:20.876Z,22.75
2023-05-04T09:57:49.695Z,6.75
2023-05-04T10:00:17.916Z,4.63
2023-05-04T10:02:46.496Z,5.78
2023-05-04T10:05:18.833Z,3.30
2023-05-04T10:07:46.852Z,34.03
2023-05-04T10:10:15.209Z,21.23
2023-05-04T10:12:45.193Z,4.72
2023-05-04T10:15:13.087Z,16.25
2023-05-04T10:17:51.865Z,6.97
2023-05-04T10:20:33.834Z,2.60
2023-05-04T10:23:16.303Z,3.05
2023-05-04T10:26:17.851Z,6.13
2023-05-04T10:31:25.748Z,6.15
2023-05-04T10:33:54.089Z,3.78
2023-05-04T10:36:21.477Z,3.90
2023-05-04T10:38:48.492Z,4.60
2023-05-04T10:41:19.658Z,3.53
2023-05-04T10:43:53.402Z,4.00
2023-05-04T10:46:21.584Z,2.70
2023-05-04T10:48:48.872Z,2.47
2023-05-04T10:51:35.647Z,17.90
2023-05-04T10:54:06.008Z,11.88
2023-05-04T10:56:32.812Z,3.58
2023-05-04T10:59:09.253Z,2.60
2023-05-04T11:01:44.792Z,5.88
2023-05-04T11:04:20.855Z,7.90
2023-05-04T11:07:08.857Z,3.35
2023-05-04T11:09:42.103Z,8.05
2023-05-04T11:12:12.425Z,17.27
2023-05-04T11:14:43.461Z,6.72
2023-05-04T11:17:27.537Z,3.08
2023-05-04T11:19:55.903Z,2.58
2023-05-04T11:22:23.097Z,2.88
2023-05-04T11:24:50.043Z,5.60
2023-05-04T11:27:28.803Z,4.13
2023-05-04T11:30:03.113Z,4.72
2023-05-04T11:32:42.891Z,4.22
2023-05-04T11:35:22.911Z,1.98
2023-05-04T11:37:50.725Z,3.97
2023-05-04T11:40:26.028Z,5.28
2023-05-04T11:42:56.924Z,4.30
2023-05-04T11:45:30.161Z,3.00
2023-05-04T11:47:58.772Z,4.80
2023-05-04T11:50:27.228Z,5.65
2023-05-04T11:53:09.456Z,5.53
2023-05-04T11:55:39.910Z,1.98
2023-05-04T11:58:11.937Z,2.60
2023-05-04T12:00:44.271Z,2.90
2023-05-04T12:03:25.950Z,3.65
2023-05-04T12:05:58.130Z,2.47
2023-05-04T12:08:36.416Z,2.35
2023-05-04T12:11:25.937Z,7.70
2023-05-04T12:14:07.335Z,4.60
2023-05-04T12:16:34.612Z,5.65
2023-05-04T12:19:11.414Z,9.65
2023-05-04T12:21:51.183Z,15.93
2023-05-04T12:24:18.201Z,3.25
2023-05-04T12:26:45.143Z,4.28
2023-05-04T12:29:12.188Z,4.28
2023-05-04T12:31:39.089Z,23.48
2023-05-04T12:34:06.179Z,13.63
2023-05-04T12:36:34.351Z,4.90
2023-05-04T12:39:01.847Z,7.10
2023-05-04T12:41:28.713Z,2.33
2023-05-04T12:43:55.982Z,9.10
2023-05-04T12:46:23.100Z,2.78
2023-05-04T12:48:50.207Z,4.25
2023-05-04T12:51:17.065Z,3.78
2023-05-04T12:53:44.334Z,2.08
2023-05-04T12:56:11.128Z,3.58
2023-05-04T12:58:38.089Z,2.20
2023-05-04T13:01:05.223Z,3.80
2023-05-04T13:03:33.104Z,4.43
2023-05-04T13:06:00.157Z,4.82
2023-05-04T13:08:27.074Z,4.70
2023-05-04T13:10:53.996Z,5.07
2023-05-04T13:13:24.625Z,4.28
2023-05-04T13:15:51.864Z,9.57
2023-05-04T13:18:19.000Z,5.13
2023-05-04T13:20:46.270Z,3.08
2023-05-04T13:23:14.146Z,3.40
2023-05-04T13:25:41.130Z,5.50
2023-05-04T13:28:07.938Z,4.30
2023-05-04T13:30:35.065Z,3.22
2023-05-04T13:33:07.694Z,2.92
2023-05-04T13:35:43.424Z,5.00
2023-05-04T13:38:10.920Z,3.80
2023-05-04T13:40:38.075Z,3.80
2023-05-04T13:43:04.892Z,6.55
2023-05-04T13:45:32.436Z,3.97
2023-05-04T13:48:00.184Z,3.05
2023-05-04T13:50:27.298Z,4.68
2023-05-04T13:52:54.228Z,4.70
2023-05-04T13:55:21.384Z,3.58
2023-05-04T13:57:48.726Z,4.00
2023-05-04T14:00:17.868Z,6.72
2023-05-04T14:02:45.535Z,5.65
2023-05-04T14:05:12.960Z,5.55
2023-05-04T14:07:43.116Z,4.72
2023-05-04T14:10:10.417Z,2.83
2023-05-04T14:12:37.324Z,5.93
2023-05-04T14:15:04.834Z,6.53
2023-05-04T14:17:31.971Z,3.97
2023-05-04T14:19:59.063Z,5.43
2023-05-04T14:22:26.154Z,5.45
2023-05-04T14:24:53.167Z,7.72
2023-05-04T14:27:21.120Z,6.03
2023-05-04T14:29:48.097Z,5.07
2023-05-04T14:32:15.312Z,6.85
2023-05-04T14:34:42.211Z,5.28
2023-05-04T14:37:09.208Z,5.18
2023-05-04T14:39:36.691Z,5.75
2023-05-04T14:42:03.994Z,3.72
2023-05-04T14:44:30.996Z,7.88
2023-05-04T14:46:58.013Z,7.95
2023-05-04T14:49:36.010Z,4.32
2023-05-04T14:52:04.589Z,4.65
2023-05-04T14:54:31.498Z,7.35
2023-05-04T14:56:59.080Z,6.03
2023-05-04T14:59:26.275Z,8.50
2023-05-04T15:01:55.043Z,9.00
2023-05-04T15:04:22.671Z,8.00
2023-05-04T15:06:49.784Z,7.38
2023-05-04T15:09:16.818Z,7.82
2023-05-04T15:11:43.822Z,7.55
2023-05-04T15:14:11.199Z,7.13
2023-05-04T15:16:38.414Z,9.88
2023-05-04T15:19:05.426Z,9.18
2023-05-04T15:21:32.471Z,8.35
2023-05-04T15:23:59.500Z,16.02
2023-05-04T15:26:26.622Z,25.33
2023-05-04T15:28:54.210Z,18.88
2023-05-04T15:31:21.824Z,12.02
2023-05-04T15:33:49.094Z,19.70
2023-05-04T15:36:16.176Z,18.60
2023-05-04T15:38:43.716Z,12.75
2023-05-04T15:41:11.018Z,11.65
2023-05-04T15:43:37.860Z,14.70
2023-05-04T15:46:04.862Z,9.98
2023-05-04T15:48:31.850Z,9.57
2023-05-04T15:50:58.806Z,10.50
2023-05-04T15:53:25.876Z,10.65
2023-05-04T15:55:53.276Z,12.93
2023-05-04T15:58:20.072Z,17.45
2023-05-04T16:00:47.369Z,19.52
2023-05-04T16:03:14.413Z,14.55
2023-05-04T16:05:41.499Z,6.55
2023-05-04T16:08:08.349Z,17.13
2023-05-04T16:10:35.361Z,12.77
2023-05-04T16:13:04.443Z,11.07
2023-05-04T16:15:31.537Z,8.38
2023-05-04T16:17:58.407Z,10.38
2023-05-04T16:20:27.070Z,7.20
2023-05-04T16:22:53.984Z,10.75
2023-05-04T16:25:21.057Z,18.85
2023-05-04T16:27:48.013Z,15.60
2023-05-04T16:30:15.869Z,7.40
2023-05-04T16:32:42.854Z,6.95
2023-05-04T16:35:09.891Z,8.32
2023-05-04T16:37:39.857Z,7.25
2023-05-04T16:40:15.151Z,6.63
2023-05-04T16:42:43.609Z,4.65
2023-05-04T16:45:12.037Z,5.72
2023-05-04T16:47:45.040Z,9.07
2023-05-04T16:50:13.481Z,8.30
2023-05-04T16:52:41.144Z,6.57
2023-05-04T16:55:11.308Z,7.45
2023-05-04T16:57:38.937Z,8.00
2023-05-04T17:00:07.120Z,8.80
2023-05-04T17:02:35.305Z,14.73
2023-05-04T17:05:04.678Z,10.65
2023-05-04T17:07:31.805Z,10.15
2023-05-04T17:09:58.747Z,7.00
2023-05-04T17:12:25.702Z,11.70
2023-05-04T17:14:52.841Z,9.57
2023-05-04T17:17:19.779Z,7.05
2023-05-04T17:19:47.844Z,6.75
2023-05-04T17:22:15.026Z,5.35
2023-05-04T17:24:44.780Z,5.97
2023-05-04T17:27:13.024Z,11.87
2023-05-04T17:29:41.207Z,73.47
2023-05-04T17:32:08.780Z,124.07
2023-05-04T17:34:36.469Z,13.30
2023-05-04T17:37:03.806Z,13.93
2023-05-04T17:39:31.757Z,15.10
2023-05-04T17:41:59.170Z,13.05
2023-05-04T17:44:50.257Z,9.85
2023-05-04T17:47:17.111Z,11.15
2023-05-04T17:49:44.084Z,8.63
2023-05-04T17:52:13.091Z,12.43
2023-05-04T17:54:41.110Z,8.27
2023-05-04T17:57:08.165Z,10.25
2023-05-04T17:59:35.146Z,15.70
2023-05-04T18:02:03.303Z,10.77
2023-05-04T18:04:32.295Z,15.57
2023-05-04T18:06:59.681Z,12.88
2023-05-04T18:09:27.009Z,9.80
2023-05-04T18:11:54.176Z,13.00
2023-05-04T18:14:21.105Z,12.05
2023-05-04T18:17:04.213Z,16.23
2023-05-04T18:19:34.301Z,14.85
2023-05-04T18:22:01.134Z,14.40
2023-05-04T18:24:28.069Z,17.80
2023-05-04T18:26:55.139Z,13.77
2023-05-04T18:29:22.112Z,16.10
2023-05-04T18:31:49.243Z,13.35
2023-05-04T18:34:16.503Z,18.70
2023-05-04T18:36:43.355Z,16.08
2023-05-04T18:39:10.932Z,15.82
2023-05-04T18:41:37.878Z,15.40
2023-05-04T18:44:15.549Z,22.23
2023-05-04T18:46:42.508Z,20.20
2023-05-04T18:49:09.410Z,23.90
2023-05-04T18:51:36.836Z,27.20
2023-05-04T18:54:04.249Z,24.42
2023-05-04T18:56:31.954Z,19.75
2023-05-04T18:58:58.752Z,19.05
2023-05-04T19:01:28.178Z,19.65
2023-05-04T19:03:55.209Z,17.52
2023-05-04T19:06:22.229Z,19.70
2023-05-04T19:08:49.725Z,22.48
2023-05-04T19:11:18.025Z,20.60
2023-05-04T19:13:46.259Z,20.05
2023-05-04T19:16:13.949Z,27.23
2023-05-04T19:18:41.255Z,22.48
2023-05-04T19:21:08.089Z,17.98
2023-05-04T19:23:35.370Z,21.00
2023-05-04T19:26:03.096Z,19.38
2023-05-04T19:28:33.973Z,21.48
2023-05-04T19:31:02.638Z,21.27
2023-05-04T19:33:40.432Z,20.27
2023-05-04T19:36:14.615Z,21.02
2023-05-04T19:38:41.577Z,20.02
2023-05-04T19:41:09.346Z,22.42
2023-05-04T19:43:38.459Z,19.38
2023-05-04T19:46:05.767Z,19.42
2023-05-04T19:48:33.075Z,17.38
2023-05-04T19:51:00.094Z,20.15
2023-05-04T19:53:27.040Z,19.83
2023-05-04T19:55:54.179Z,21.98
2023-05-04T19:58:22.260Z,22.20
2023-05-04T20:00:49.539Z,23.30
2023-05-04T20:03:17.917Z,25.85
2023-05-04T20:06:11.138Z,23.05
2023-05-04T20:08:50.773Z,23.58
2023-05-04T20:11:17.651Z,22.23
2023-05-04T20:13:44.684Z,22.63
2023-05-04T20:16:12.981Z,25.90
2023-05-04T20:18:39.889Z,26.73
2023-05-04T20:21:12.679Z,24.83
2023-05-04T20:23:39.756Z,22.63
2023-05-04T20:26:06.660Z,26.13
2023-05-04T20:28:33.666Z,25.45
2023-05-04T20:31:01.051Z,18.50
2023-05-04T20:33:28.239Z,24.35
2023-05-04T20:35:55.242Z,18.95
2023-05-04T20:38:22.359Z,20.92
2023-05-04T20:40:50.436Z,22.83
2023-05-04T20:43:19.323Z,22.08
2023-05-04T20:45:46.115Z,23.98
2023-05-04T20:48:12.988Z,25.50
2023-05-04T20:50:40.502Z,18.52
2023-05-04T20:53:07.415Z,22.33
2023-05-04T20:55:34.466Z,21.17
2023-05-04T20:58:01.545Z,22.48
2023-05-04T21:00:29.064Z,19.38
2023-05-04T21:02:56.150Z,25.67
2023-05-04T21:05:23.183Z,26.25
2023-05-04T21:07:52.257Z,24.80
2023-05-04T21:10:20.081Z,21.35
2023-05-04T21:12:47.383Z,22.65
2023-05-04T21:15:14.456Z,23.60
2023-05-04T21:17:41.459Z,19.48
2023-05-04T21:20:09.523Z,20.10
2023-05-04T21:22:38.568Z,17.35
2023-05-04T21:25:06.462Z,22.02
2023-05-04T21:27:33.424Z,21.25
2023-05-04T21:30:00.522Z,22.83
2023-05-04T21:32:30.529Z,23.02
2023-05-04T21:34:57.565Z,19.23
2023-05-04T21:37:24.408Z,24.73
2023-05-04T21:39:57.663Z,19.17
2023-05-04T21:42:24.639Z,26.23
2023-05-04T21:44:56.099Z,18.73
2023-05-04T21:49:54.297Z,20.00
2023-05-04T21:52:21.497Z,19.42
2023-05-04T21:54:48.596Z,20.20
2023-05-04T21:57:15.714Z,25.55
2023-05-04T21:59:43.111Z,20.90
2023-05-04T22:02:10.147Z,17.02
2023-05-04T22:04:37.528Z,19.45
2023-05-04T22:07:04.438Z,17.52
2023-05-04T22:09:31.746Z,20.40
2023-05-04T22:11:58.792Z,18.20
2023-05-04T22:14:26.128Z,32.15
2023-05-04T22:16:53.285Z,23.63
2023-05-04T22:19:20.282Z,17.67
2023-05-04T22:21:47.167Z,23.55
2023-05-04T22:24:14.143Z,18.83
2023-05-04T22:26:41.182Z,25.23
2023-05-04T22:29:07.983Z,23.80
2023-05-04T22:31:34.949Z,20.67
2023-05-04T22:34:01.940Z,18.25
2023-05-04T22:36:28.899Z,18.38
2023-05-04T22:38:55.902Z,19.80
2023-05-04T22:41:22.934Z,16.58
2023-05-04T22:43:49.716Z,22.75
2023-05-04T22:46:19.792Z,16.95
2023-05-04T22:48:46.999Z,20.73
2023-05-04T22:51:14.705Z,20.92
2023-05-04T22:53:41.669Z,20.90
2023-05-04T22:56:09.088Z,24.30
2023-05-04T22:58:35.886Z,19.02
2023-05-04T23:01:02.943Z,16.95
2023-05-04T23:03:30.175Z,26.75
2023-05-04T23:06:01.015Z,18.23
2023-05-04T23:08:27.925Z,19.65
2023-05-04T23:10:54.848Z,20.50
2023-05-04T23:13:22.022Z,21.45
2023-05-04T23:15:48.828Z,20.00
2023-05-04T23:18:16.354Z,17.40
2023-05-04T23:20:44.096Z,22.08
2023-05-04T23:23:11.441Z,23.98
2023-05-04T23:25:41.433Z,23.38
2023-05-04T23:28:08.319Z,19.35
2023-05-04T23:30:35.611Z,18.65
2023-05-04T23:33:03.818Z,17.63
2023-05-04T23:35:31.757Z,17.77
2023-05-04T23:37:58.508Z,20.48
2023-05-04T23:40:25.762Z,20.98
2023-05-04T23:42:52.623Z,21.92
2023-05-04T23:45:19.872Z,22.60
2023-05-04T23:47:46.830Z,17.58
2023-05-04T23:50:13.942Z,16.73
2023-05-04T23:52:40.866Z,15.00
2023-05-04T23:55:08.004Z,17.70
2023-05-04T23:57:35.064Z,18.50
